Flood From: 22-02-2018 16:00 Until: 23-02-2018 16:00 warning for: Flood Level: Yellow info button

Although rather usual in this region, locally or potentially dangerous phenomena are expected. (such as local winds, summer thunderstorms, rising streams or high waves) Be aware and pay attention to the latest weather updates, especially if you carry out activities exposed to weather or close to a stream or shoreline. 


Meteo18 Weather Cam more information Meteo18 Weather Cam


Thunder radar more information blitzortung!


Rain radar more information rain snow radar


Visit our other weather sites:

Template documentation
and downloads

And another site



Weather Underground History page Text

Daily Summary for September 11, 2017 Units:  English    Metric   Both
« Previous Day
Next Day »
Daily Weekly Monthly Yearly Custom
  High: Low: Average:
Temperature: TemperatureC °F 12.7 °F 14.6 °F
Dew Point: DewpointC °F 8.0 °F 10.3 °F
Humidity: Humidity % 53 % 77 %
Wind Speed: WindSpeedKMH mph 3.2 mph 12 mph
Wind Gust: WindSpeedGustKMH mph - -
Wind:- - WSW
Pressure: PressurehPa in 1004.3 in -
Precipitation: 2.0 in    
Historical Graphs
 
 
Tabular Data for September 11, 2017
Time Temperature Dew Point Pressure Wind Wind Speed Wind Gust Humidity Rainfall Rate (Hourly)
TemperatureC °F DewpointC °F PressurehPa in Calm     Humidity % HourlyPrecipMM in
00:02 15.7 °F 10.7 °F 1006.0 in SW 14.5 mph 24.1 mph 72 % 0.0 in
00:12 15.8 °F 10.8 °F 1006.0 in SW 9.7 mph 29.0 mph 72 % 0.0 in
00:17 15.8 °F 10.8 °F 1006.0 in SSW 14.5 mph 29.0 mph 72 % 0.0 in
00:22 15.7 °F 10.9 °F 1006.0 in SW 16.1 mph 29.0 mph 73 % 0.0 in
00:32 15.1 °F 11.3 °F 1006.0 in SW 20.9 mph 29.0 mph 78 % 0.0 in
00:37 14.7 °F 11.5 °F 1006.0 in SW 11.3 mph 30.6 mph 81 % 0.0 in
00:42 14.4 °F 11.5 °F 1006.0 in SW 9.7 mph 30.6 mph 83 % 0.0 in
00:52 13.9 °F 11.6 °F 1005.6 in South 3.2 mph 19.3 mph 86 % 0.0 in
00:57 13.9 °F 11.6 °F 1005.6 in SW 4.8 mph 16.1 mph 86 % 0.0 in
01:02 14.0 °F 11.7 °F 1005.6 in SW 9.7 mph 11.3 mph 86 % 0.0 in
01:12 14.3 °F 11.5 °F 1005.6 in SSW 6.4 mph 14.5 mph 83 % 0.0 in
01:17 14.5 °F 11.5 °F 1005.3 in SSW 8.0 mph 16.1 mph 82 % 0.0 in
01:22 14.7 °F 11.5 °F 1005.3 in SW 4.8 mph 17.7 mph 81 % 0.0 in
01:32 14.8 °F 11.6 °F 1005.3 in WSW 8.0 mph 33.8 mph 81 % 0.0 in
01:37 14.7 °F 11.5 °F 1005.3 in SW 17.7 mph 33.8 mph 81 % 0.0 in
01:42 14.6 °F 11.6 °F 1005.0 in SW 19.3 mph 33.8 mph 82 % 0.0 in
01:47 14.6 °F 11.6 °F 1005.0 in WSW 14.5 mph 29.0 mph 82 % 0.0 in
01:52 14.4 °F 11.5 °F 1005.0 in SW 20.9 mph 29.0 mph 83 % 0.0 in
01:57 14.2 °F 11.7 °F 1005.0 in SW 12.9 mph 25.7 mph 85 % 0.0 in
02:02 13.8 °F 11.7 °F 1005.0 in WSW 12.9 mph 24.1 mph 87 % 0.0 in
02:07 13.6 °F 11.8 °F 1005.0 in WSW 19.3 mph 27.4 mph 89 % 0.5 in
02:12 13.4 °F 11.8 °F 1005.0 in SSW 8.0 mph 27.4 mph 90 % 0.5 in
02:17 13.2 °F 11.8 °F 1005.0 in SW 11.3 mph 27.4 mph 91 % 0.5 in
02:22 13.2 °F 11.9 °F 1005.0 in SW 9.7 mph 22.5 mph 92 % 0.5 in
02:27 13.1 °F 11.8 °F 1004.6 in SSW 4.8 mph 22.5 mph 92 % 0.5 in
02:32 13.0 °F 11.9 °F 1004.6 in SW 9.7 mph 19.3 mph 93 % 0.8 in
02:37 13.0 °F 11.9 °F 1004.6 in WSW 9.7 mph 19.3 mph 93 % 0.8 in
02:42 12.9 °F 12.0 °F 1004.6 in SW 8.0 mph 22.5 mph 94 % 0.8 in
02:47 12.9 °F 12.0 °F 1004.3 in SSW 9.7 mph 22.5 mph 94 % 1.0 in
02:52 12.9 °F 12.0 °F 1004.3 in WSW 8.0 mph 22.5 mph 94 % 1.0 in
02:57 12.9 °F 12.0 °F 1004.6 in SSW 14.5 mph 20.9 mph 94 % 1.0 in
03:02 12.9 °F 12.1 °F 1004.6 in SW 9.7 mph 20.9 mph 95 % 1.0 in
03:12 13.1 °F 12.3 °F 1004.6 in SW 9.7 mph 20.9 mph 95 % 0.5 in
03:17 13.2 °F 12.4 °F 1004.6 in SW 12.9 mph 20.9 mph 95 % 0.5 in
03:22 13.3 °F 12.5 °F 1004.6 in SW 11.3 mph 22.5 mph 95 % 0.5 in
03:27 13.5 °F 12.7 °F 1004.3 in SW 4.8 mph 22.5 mph 95 % 0.5 in
03:32 13.6 °F 12.8 °F 1004.6 in SW 9.7 mph 22.5 mph 95 % 0.5 in
03:42 13.7 °F 12.9 °F 1004.6 in SW 11.3 mph 20.9 mph 95 % 0.5 in
03:47 13.7 °F 12.9 °F 1004.6 in West 3.2 mph 17.7 mph 95 % 0.3 in
03:52 13.8 °F 13.0 °F 1004.6 in WSW 11.3 mph 17.7 mph 95 % 0.3 in
03:57 13.8 °F 13.0 °F 1004.3 in WSW 3.2 mph 17.7 mph 95 % 0.0 in
04:02 13.9 °F 12.9 °F 1004.6 in WSW 11.3 mph 17.7 mph 94 % 0.0 in
04:12 14.0 °F 12.9 °F 1004.6 in WSW 9.7 mph 27.4 mph 93 % 0.0 in
04:17 14.0 °F 12.9 °F 1004.3 in WSW 6.4 mph 24.1 mph 93 % 0.0 in
04:22 14.0 °F 12.9 °F 1004.6 in West 9.7 mph 20.9 mph 93 % 0.0 in
04:32 14.0 °F 12.9 °F 1004.6 in WSW 6.4 mph 17.7 mph 93 % 0.3 in
04:37 14.0 °F 12.9 °F 1004.6 in West 6.4 mph 16.1 mph 93 % 0.3 in
04:42 13.9 °F 12.8 °F 1004.6 in WSW 12.9 mph 17.7 mph 93 % 0.3 in
04:47 13.8 °F 12.7 °F 1004.6 in WNW 8.0 mph 17.7 mph 93 % 0.5 in
04:52 13.7 °F 12.6 °F 1004.6 in West 11.3 mph 17.7 mph 93 % 0.5 in
04:57 13.6 °F 12.2 °F 1004.6 in West 8.0 mph 20.9 mph 91 % 0.8 in
05:02 13.6 °F 12.0 °F 1004.3 in West 8.0 mph 20.9 mph 90 % 0.8 in
05:07 13.7 °F 12.1 °F 1004.3 in West 12.9 mph 22.5 mph 90 % 0.8 in
05:22 13.6 °F 12.2 °F 1004.6 in West 8.0 mph 17.7 mph 91 % 0.8 in
05:32 13.4 °F 12.1 °F 1004.6 in WSW 8.0 mph 20.9 mph 92 % 0.8 in
05:37 13.3 °F 12.0 °F 1004.6 in West 8.0 mph 20.9 mph 92 % 0.5 in
05:42 13.3 °F 12.0 °F 1004.6 in SW 19.3 mph 20.9 mph 92 % 0.5 in
05:47 13.2 °F 11.9 °F 1004.6 in WSW 12.9 mph 19.3 mph 92 % 0.5 in
05:52 13.2 °F 11.9 °F 1005.0 in SW 6.4 mph 19.3 mph 92 % 0.5 in
05:57 13.1 °F 11.8 °F 1005.0 in SW 9.7 mph 25.7 mph 92 % 0.0 in
06:02 13.1 °F 11.8 °F 1005.0 in West 12.9 mph 25.7 mph 92 % 0.0 in
06:07 13.1 °F 11.7 °F 1005.0 in WSW 6.4 mph 25.7 mph 91 % 0.0 in
06:12 13.1 °F 11.7 °F 1004.6 in WSW 4.8 mph 25.7 mph 91 % 0.0 in
06:17 13.0 °F 11.7 °F 1004.6 in WSW 14.5 mph 25.7 mph 92 % 0.0 in
06:22 13.0 °F 11.7 °F 1005.0 in WSW 19.3 mph 22.5 mph 92 % 0.0 in
06:27 12.9 °F 11.6 °F 1005.0 in SW 6.4 mph 22.5 mph 92 % 0.0 in
06:32 12.9 °F 11.6 °F 1005.0 in SSW 14.5 mph 20.9 mph 92 % 0.0 in
06:37 12.9 °F 11.6 °F 1005.0 in WSW 16.1 mph 20.9 mph 92 % 0.0 in
06:42 12.9 °F 11.6 °F 1005.0 in WSW 9.7 mph 25.7 mph 92 % 0.0 in
06:47 12.9 °F 11.6 °F 1005.0 in SW 19.3 mph 25.7 mph 92 % 0.0 in
06:52 12.9 °F 11.6 °F 1005.0 in WSW 6.4 mph 25.7 mph 92 % 0.0 in
06:57 12.9 °F 11.6 °F 1005.0 in WNW 9.7 mph 25.7 mph 92 % 0.0 in
07:02 12.9 °F 11.6 °F 1005.0 in West 12.9 mph 24.1 mph 92 % 0.0 in
07:12 12.9 °F 11.6 °F 1005.0 in SW 11.3 mph 20.9 mph 92 % 0.0 in
07:17 12.8 °F 11.7 °F 1005.3 in SW 11.3 mph 24.1 mph 93 % 0.0 in
07:22 12.8 °F 11.7 °F 1005.3 in West 4.8 mph 24.1 mph 93 % 0.0 in
07:27 12.8 °F 11.7 °F 1005.3 in SW 11.3 mph 22.5 mph 93 % 0.0 in
07:32 12.8 °F 11.7 °F 1005.3 in West 6.4 mph 22.5 mph 93 % 0.0 in
07:37 12.8 °F 11.7 °F 1005.6 in West 6.4 mph 19.3 mph 93 % 0.0 in
07:42 12.9 °F 11.8 °F 1005.6 in WSW 19.3 mph 19.3 mph 93 % 0.0 in
07:47 13.0 °F 11.6 °F 1005.6 in West 12.9 mph 24.1 mph 91 % 0.0 in
07:52 13.0 °F 11.6 °F 1005.6 in SW 8.0 mph 24.1 mph 91 % 0.0 in
07:57 12.9 °F 11.5 °F 1005.6 in SW 11.3 mph 27.4 mph 91 % 0.0 in
08:02 12.9 °F 11.5 °F 1005.6 in SW 9.7 mph 27.4 mph 91 % 0.0 in
08:12 12.9 °F 11.5 °F 1006.0 in WSW 14.5 mph 20.9 mph 91 % 0.0 in
08:22 13.1 °F 11.7 °F 1006.0 in WSW 6.4 mph 20.9 mph 91 % 0.0 in
08:32 13.1 °F 11.7 °F 1006.0 in WSW 9.7 mph 19.3 mph 91 % 0.0 in
08:37 13.1 °F 11.7 °F 1006.0 in West 11.3 mph 17.7 mph 91 % 0.0 in
08:42 13.1 °F 11.7 °F 1006.3 in WSW 16.1 mph 17.7 mph 91 % 0.0 in
08:47 13.2 °F 11.8 °F 1006.3 in WNW 11.3 mph 24.1 mph 91 % 0.0 in
08:57 13.2 °F 11.4 °F 1006.3 in WSW 12.9 mph 25.7 mph 89 % 0.0 in
09:02 13.2 °F 11.4 °F 1006.3 in WSW 14.5 mph 25.7 mph 89 % 0.0 in
09:12 13.3 °F 11.4 °F 1006.3 in West 4.8 mph 27.4 mph 88 % 0.0 in
09:17 13.3 °F 11.4 °F 1006.3 in West 12.9 mph 20.9 mph 88 % 0.0 in
09:27 13.4 °F 11.3 °F 1006.3 in WSW 16.1 mph 20.9 mph 87 % 0.0 in
09:32 13.4 °F 11.3 °F 1006.3 in WSW 14.5 mph 20.9 mph 87 % 0.0 in
09:42 13.8 °F 11.7 °F 1006.7 in SW 9.7 mph 20.9 mph 87 % 0.0 in
09:47 13.9 °F 11.6 °F 1006.7 in West 8.0 mph 17.7 mph 86 % 0.0 in
09:52 13.8 °F 11.1 °F 1006.7 in West 16.1 mph 17.7 mph 84 % 0.0 in
09:57 13.8 °F 11.1 °F 1006.7 in West 17.7 mph 24.1 mph 84 % 0.0 in
10:02 13.8 °F 11.3 °F 1006.7 in West 11.3 mph 24.1 mph 85 % 0.0 in
10:12 13.9 °F 11.1 °F 1006.7 in SW 11.3 mph 24.1 mph 83 % 0.0 in
10:17 14.0 °F 11.3 °F 1006.7 in West 11.3 mph 24.1 mph 84 % 0.0 in
10:22 14.0 °F 11.3 °F 1006.7 in WSW 6.4 mph 24.1 mph 84 % 0.0 in
10:27 14.3 °F 11.6 °F 1006.7 in WSW 3.2 mph 24.1 mph 84 % 0.0 in
10:32 14.3 °F 11.5 °F 1006.7 in West 11.3 mph 24.1 mph 83 % 0.0 in
10:37 14.2 °F 11.0 °F 1006.7 in WSW 12.9 mph 22.5 mph 81 % 0.0 in
10:42 14.3 °F 10.9 °F 1007.0 in WSW 19.3 mph 22.5 mph 80 % 0.0 in
10:47 14.4 °F 11.0 °F 1007.0 in West 14.5 mph 29.0 mph 80 % 0.0 in
10:52 14.3 °F 10.5 °F 1007.0 in WSW 17.7 mph 29.0 mph 78 % 0.0 in
11:02 14.9 °F 10.7 °F 1007.0 in West 8.0 mph 25.7 mph 76 % 0.0 in
11:12 15.1 °F 10.1 °F 1007.0 in West 12.9 mph 35.4 mph 72 % 0.0 in
11:17 15.2 °F 9.5 °F 1007.0 in West 8.0 mph 35.4 mph 69 % 0.0 in
11:22 14.9 °F 9.9 °F 1007.0 in West 17.7 mph 35.4 mph 72 % 0.0 in
11:32 15.2 °F 9.3 °F 1007.0 in WNW 12.9 mph 32.2 mph 68 % 0.0 in
11:42 15.4 °F 10.0 °F 1007.0 in West 6.4 mph 35.4 mph 70 % 0.0 in
11:47 15.2 °F 9.5 °F 1007.0 in West 22.5 mph 35.4 mph 69 % 0.0 in
11:52 15.1 °F 9.9 °F 1007.0 in West 22.5 mph 30.6 mph 71 % 0.0 in
11:57 15.4 °F 10.2 °F 1007.0 in WSW 12.9 mph 32.2 mph 71 % 0.0 in
12:02 15.7 °F 10.2 °F 1007.0 in WSW 19.3 mph 32.2 mph 70 % 0.0 in
12:07 15.9 °F 10.2 °F 1007.0 in SW 11.3 mph 29.0 mph 69 % 0.0 in
12:12 15.9 °F 10.0 °F 1007.0 in WSW 16.1 mph 29.0 mph 68 % 0.0 in
12:17 15.8 °F 9.5 °F 1007.0 in West 14.5 mph 30.6 mph 66 % 0.0 in
12:22 15.7 °F 9.8 °F 1007.0 in WSW 9.7 mph 32.2 mph 68 % 0.0 in
12:32 15.9 °F 9.3 °F 1007.0 in WSW 30.6 mph 37.0 mph 65 % 0.0 in
12:37 15.6 °F 8.8 °F 1007.0 in WSW 25.7 mph 37.0 mph 64 % 0.0 in
12:42 15.7 °F 9.1 °F 1007.0 in WNW 14.5 mph 37.0 mph 65 % 0.0 in
12:47 15.9 °F 9.1 °F 1007.3 in West 19.3 mph 37.0 mph 64 % 0.0 in
12:52 15.9 °F 10.0 °F 1007.3 in WSW 12.9 mph 35.4 mph 68 % 0.0 in
12:57 15.9 °F 9.6 °F 1007.0 in SW 16.1 mph 35.4 mph 66 % 0.0 in
13:02 16.0 °F 9.9 °F 1007.0 in WSW 16.1 mph 29.0 mph 67 % 0.0 in
13:12 16.0 °F 9.2 °F 1007.3 in WSW 16.1 mph 22.5 mph 64 % 0.0 in
13:17 16.1 °F 9.5 °F 1007.3 in SW 19.3 mph 27.4 mph 65 % 0.0 in
13:22 15.9 °F 9.3 °F 1007.3 in West 25.7 mph 27.4 mph 65 % 0.0 in
13:27 15.9 °F 9.3 °F 1007.0 in SSW 22.5 mph 30.6 mph 65 % 0.0 in
13:32 16.4 °F 9.3 °F 1007.0 in West 9.7 mph 30.6 mph 63 % 0.0 in
13:37 16.7 °F 9.4 °F 1007.0 in SW 16.1 mph 33.8 mph 62 % 0.0 in
13:42 16.6 °F 9.3 °F 1007.3 in West 14.5 mph 33.8 mph 62 % 0.0 in
13:52 16.6 °F 9.3 °F 1007.3 in WSW 11.3 mph 27.4 mph 62 % 0.0 in
13:57 16.9 °F 9.3 °F 1007.0 in SW 17.7 mph 24.1 mph 61 % 0.0 in
14:02 16.9 °F 8.8 °F 1007.3 in West 12.9 mph 37.0 mph 59 % 0.0 in
14:07 16.7 °F 9.1 °F 1007.0 in West 19.3 mph 37.0 mph 61 % 0.0 in
14:12 16.9 °F 9.3 °F 1007.0 in SW 8.0 mph 37.0 mph 61 % 0.0 in
14:17 17.2 °F 8.6 °F 1007.3 in SW 25.7 mph 37.0 mph 57 % 0.0 in
14:22 16.9 °F 8.6 °F 1007.3 in WSW 17.7 mph 38.6 mph 58 % 0.0 in
14:32 17.0 °F 9.2 °F 1007.3 in WNW 17.7 mph 38.6 mph 60 % 0.0 in
14:37 17.1 °F 9.0 °F 1007.3 in WNW 20.9 mph 33.8 mph 59 % 0.0 in
14:42 17.1 °F 9.0 °F 1007.3 in West 11.3 mph 30.6 mph 59 % 0.0 in
14:47 17.1 °F 8.8 °F 1007.3 in West 19.3 mph 35.4 mph 58 % 0.0 in
14:52 17.5 °F 8.9 °F 1007.3 in WSW 9.7 mph 35.4 mph 57 % 0.0 in
14:57 17.3 °F 8.4 °F 1007.3 in SW 17.7 mph 35.4 mph 56 % 0.0 in
15:02 16.9 °F 8.6 °F 1007.3 in WNW 22.5 mph 35.4 mph 58 % 0.0 in
15:12 16.7 °F 8.1 °F 1007.3 in WNW 8.0 mph 35.4 mph 57 % 0.0 in
15:17 16.9 °F 8.6 °F 1007.3 in WSW 12.9 mph 35.4 mph 58 % 0.0 in
15:22 17.3 °F 8.4 °F 1007.0 in West 19.3 mph 35.4 mph 56 % 0.0 in
15:32 17.8 °F 8.4 °F 1007.0 in WNW 35.4 mph 35.4 mph 54 % 0.0 in
15:42 17.7 °F 8.3 °F 1007.3 in West 17.7 mph 41.8 mph 54 % 0.0 in
15:47 17.4 °F 8.3 °F 1007.3 in West 9.7 mph 41.8 mph 55 % 0.0 in
15:52 17.8 °F 8.6 °F 1007.0 in SW 8.0 mph 37.0 mph 55 % 0.0 in
15:57 17.8 °F 8.1 °F 1007.0 in WSW 19.3 mph 37.0 mph 53 % 0.0 in
16:02 17.6 °F 8.7 °F 1007.0 in WSW 11.3 mph 40.2 mph 56 % 0.0 in
16:07 17.4 °F 8.8 °F 1007.0 in West 14.5 mph 40.2 mph 57 % 0.0 in
16:12 17.3 °F 8.7 °F 1007.0 in West 11.3 mph 38.6 mph 57 % 0.0 in
16:22 17.2 °F 9.4 °F 1007.3 in WNW 20.9 mph 30.6 mph 60 % 0.0 in
16:32 16.7 °F 8.6 °F 1007.3 in WNW 32.2 mph 32.2 mph 59 % 0.0 in
16:37 16.1 °F 9.1 °F 1007.7 in WSW 29.0 mph 35.4 mph 63 % 0.0 in
16:42 15.3 °F 9.9 °F 1007.7 in West 20.9 mph 37.0 mph 70 % 0.0 in
16:47 15.0 °F 9.8 °F 1007.3 in WSW 16.1 mph 37.0 mph 71 % 0.0 in
16:52 15.1 °F 9.7 °F 1007.3 in West 17.7 mph 37.0 mph 70 % 0.0 in
17:02 15.4 °F 10.2 °F 1007.3 in WSW 14.5 mph 22.5 mph 71 % 0.0 in
17:12 16.0 °F 10.1 °F 1007.0 in SSW 8.0 mph 30.6 mph 68 % 0.0 in
17:17 16.3 °F 9.9 °F 1007.0 in SW 20.9 mph 30.6 mph 66 % 0.0 in
17:22 16.6 °F 9.5 °F 1007.0 in WSW 16.1 mph 27.4 mph 63 % 0.0 in
17:27 16.8 °F 9.0 °F 1007.0 in WSW 11.3 mph 27.4 mph 60 % 0.0 in
17:32 16.9 °F 8.1 °F 1007.0 in WSW 29.0 mph 32.2 mph 56 % 0.0 in
17:37 17.1 °F 8.0 °F 1007.3 in WSW 14.5 mph 33.8 mph 55 % 0.0 in
17:42 17.1 °F 8.5 °F 1007.3 in WSW 11.3 mph 37.0 mph 57 % 0.0 in
17:52 17.1 °F 8.8 °F 1007.3 in WSW 9.7 mph 33.8 mph 58 % 0.0 in
17:57 16.8 °F 8.5 °F 1007.3 in WSW 12.9 mph 33.8 mph 58 % 0.0 in
18:02 16.8 °F 8.7 °F 1007.3 in West 14.5 mph 29.0 mph 59 % 0.0 in
18:07 16.8 °F 8.7 °F 1007.3 in West 12.9 mph 29.0 mph 59 % 0.0 in
18:12 16.8 °F 8.7 °F 1007.3 in WSW 20.9 mph 24.1 mph 59 % 0.0 in
18:17 16.8 °F 9.0 °F 1007.3 in WSW 22.5 mph 24.1 mph 60 % 0.0 in
18:22 16.8 °F 9.0 °F 1007.3 in WSW 12.9 mph 24.1 mph 60 % 0.0 in
18:32 16.4 °F 9.6 °F 1007.7 in NW 19.3 mph 22.5 mph 64 % 0.0 in
18:37 15.4 °F 10.0 °F 1007.7 in WNW 14.5 mph 30.6 mph 70 % 0.0 in
18:42 15.1 °F 9.9 °F 1007.3 in West 6.4 mph 32.2 mph 71 % 0.0 in
18:47 15.0 °F 10.0 °F 1007.3 in West 6.4 mph 32.2 mph 72 % 0.0 in
18:52 15.1 °F 10.5 °F 1007.3 in WNW 12.9 mph 16.1 mph 74 % 0.0 in
18:57 15.3 °F 10.1 °F 1007.3 in WSW 12.9 mph 20.9 mph 71 % 0.0 in
19:02 15.5 °F 10.3 °F 1007.3 in WSW 12.9 mph 20.9 mph 71 % 0.0 in
19:12 15.6 °F 10.1 °F 1007.3 in WSW 11.3 mph 19.3 mph 70 % 0.0 in
19:17 15.6 °F 10.1 °F 1007.3 in SW 3.2 mph 19.3 mph 70 % 0.0 in
19:22 15.4 °F 10.2 °F 1007.3 in WSW 9.7 mph 17.7 mph 71 % 0.0 in
19:27 15.4 °F 10.2 °F 1007.3 in SW 9.7 mph 20.9 mph 71 % 0.0 in
19:32 15.4 °F 10.0 °F 1007.3 in WSW 8.0 mph 22.5 mph 70 % 0.0 in
19:42 15.4 °F 8.6 °F 1007.7 in WSW 9.7 mph 29.0 mph 64 % 0.0 in
19:47 15.2 °F 8.7 °F 1007.7 in WSW 12.9 mph 29.0 mph 65 % 0.0 in
19:52 15.1 °F 8.3 °F 1007.7 in WSW 9.7 mph 29.0 mph 64 % 0.0 in
20:02 15.0 °F 8.5 °F 1008.0 in WSW 3.2 mph 22.5 mph 65 % 0.0 in
20:12 14.9 °F 8.4 °F 1008.0 in WSW 8.0 mph 19.3 mph 65 % 0.0 in
20:17 14.8 °F 8.3 °F 1008.0 in WSW 8.0 mph 19.3 mph 65 % 0.0 in
20:22 14.7 °F 8.4 °F 1008.0 in SW 6.4 mph 19.3 mph 66 % 0.0 in
20:32 14.6 °F 8.5 °F 1008.0 in SW 6.4 mph 16.1 mph 67 % 0.0 in
20:37 14.4 °F 8.6 °F 1008.4 in SW 3.2 mph 12.9 mph 68 % 0.0 in
20:42 14.3 °F 8.5 °F 1008.4 in SW 4.8 mph 12.9 mph 68 % 0.0 in
20:47 14.3 °F 8.5 °F 1008.4 in WSW 8.0 mph 16.1 mph 68 % 0.0 in
20:52 14.3 °F 8.7 °F 1008.4 in SW 9.7 mph 16.1 mph 69 % 0.0 in
20:57 14.4 °F 8.6 °F 1008.4 in SW 9.7 mph 19.3 mph 68 % 0.0 in
21:02 14.4 °F 8.6 °F 1008.4 in West 6.4 mph 20.9 mph 68 % 0.0 in
21:07 14.4 °F 8.6 °F 1008.4 in SW 9.7 mph 20.9 mph 68 % 0.0 in
21:12 14.5 °F 8.2 °F 1008.4 in WSW 11.3 mph 22.5 mph 66 % 0.0 in
21:17 14.6 °F 8.3 °F 1008.7 in WSW 19.3 mph 32.2 mph 66 % 0.0 in
21:22 14.6 °F 8.3 °F 1008.7 in WSW 12.9 mph 32.2 mph 66 % 0.0 in
21:27 14.5 °F 8.2 °F 1008.7 in WNW 11.3 mph 32.2 mph 66 % 0.0 in
21:32 14.4 °F 8.3 °F 1009.0 in West 12.9 mph 32.2 mph 67 % 0.0 in
21:37 14.4 °F 8.3 °F 1009.0 in West 12.9 mph 32.2 mph 67 % 0.0 in
21:42 14.3 °F 8.5 °F 1009.0 in West 8.0 mph 29.0 mph 68 % 0.0 in
21:47 14.2 °F 8.4 °F 1009.0 in WSW 4.8 mph 29.0 mph 68 % 0.0 in
21:52 14.1 °F 8.5 °F 1009.0 in SW 11.3 mph 29.0 mph 69 % 0.0 in
21:57 14.0 °F 8.4 °F 1009.4 in SW 8.0 mph 19.3 mph 69 % 0.0 in
22:02 14.0 °F 8.6 °F 1009.4 in WSW 6.4 mph 14.5 mph 70 % 0.0 in
22:07 13.9 °F 8.5 °F 1009.4 in SW 4.8 mph 14.5 mph 70 % 0.0 in
22:12 13.8 °F 8.4 °F 1009.4 in SW 8.0 mph 14.5 mph 70 % 0.0 in
22:22 13.8 °F 8.6 °F 1009.4 in SW 8.0 mph 11.3 mph 71 % 0.0 in
22:27 13.7 °F 8.7 °F 1009.4 in SSW 6.4 mph 14.5 mph 72 % 0.0 in
22:32 13.4 °F 8.7 °F 1009.4 in SSW 4.8 mph 14.5 mph 73 % 0.0 in
22:42 12.9 °F 9.3 °F 1009.4 in SW 4.8 mph 9.7 mph 79 % 0.0 in
22:52 12.7 °F 9.5 °F 1009.4 in SW 6.4 mph 9.7 mph 81 % 0.0 in
23:02 12.8 °F 9.8 °F 1009.4 in SW 6.4 mph 12.9 mph 82 % 0.0 in
23:12 13.0 °F 10.2 °F 1009.4 in SSW 6.4 mph 12.9 mph 83 % 0.0 in
23:17 13.0 °F 10.2 °F 1009.4 in SW 6.4 mph 14.5 mph 83 % 0.0 in
23:22 13.1 °F 10.3 °F 1009.7 in WSW 4.8 mph 14.5 mph 83 % 0.0 in
23:27 13.0 °F 10.2 °F 1009.4 in SSW 6.4 mph 14.5 mph 83 % 0.0 in
23:32 13.0 °F 10.4 °F 1009.7 in SW 8.0 mph 12.9 mph 84 % 0.0 in
23:37 12.9 °F 10.3 °F 1009.4 in SSW 4.8 mph 12.9 mph 84 % 0.0 in
23:42 12.9 °F 10.3 °F 1009.7 in SW 6.4 mph 11.3 mph 84 % 0.0 in
23:47 12.9 °F 10.4 °F 1009.7 in SW 4.8 mph 11.3 mph 85 % 0.0 in
23:52 12.9 °F 10.4 °F 1009.7 in SW 6.4 mph 11.3 mph 85 % 0.0 in
23:57 12.9 °F 10.4 °F 1009.7 in SW 6.4 mph 12.9 mph 85 % 0.0 in
Meteo18
Compliments of Weather Underground - 4 mb

Script developed by  Jim McMurry - jmcmurry@mwt.net Adapted for the template by  Wim van der Kuil - Leuven-Template.eu

You find our weather info also at:

European Weather Network

Weather Underground

Equipment we use:

Weather-station
Davis Vue

Weather-program
Meteobridge

Weather-server
Raspberry PI 2 B+

Provider
1 and 1

Davis Vue

Meteobridge

Raspberry PI 2 B+

1 and 1